createdAt,value
2018-10-06T00:00:17.843Z,15.66
2018-10-06T00:02:48.321Z,15.64
2018-10-06T00:05:18.685Z,15.61
2018-10-06T00:07:49.021Z,15.65
2018-10-06T00:10:19.340Z,15.60
2018-10-06T00:12:49.687Z,15.52
2018-10-06T00:15:20.019Z,15.48
2018-10-06T00:17:50.308Z,15.43
2018-10-06T00:20:20.637Z,15.43
2018-10-06T00:22:51.082Z,15.40
2018-10-06T00:25:21.440Z,15.31
2018-10-06T00:27:51.826Z,15.39
2018-10-06T00:30:22.201Z,15.28
2018-10-06T00:32:52.666Z,15.29
2018-10-06T00:35:22.987Z,15.16
2018-10-06T00:37:53.319Z,15.07
2018-10-06T00:40:23.663Z,15.08
2018-10-06T00:42:53.954Z,15.03
2018-10-06T00:45:39.067Z,14.98
2018-10-06T00:48:09.421Z,14.91
2018-10-06T00:50:39.779Z,15.02
2018-10-06T00:53:10.133Z,14.92
2018-10-06T00:55:40.427Z,14.88
2018-10-06T00:58:10.768Z,14.84
2018-10-06T01:00:41.143Z,14.79
2018-10-06T01:03:11.449Z,14.71
2018-10-06T01:05:41.826Z,14.68
2018-10-06T01:08:12.168Z,14.52
2018-10-06T01:10:42.472Z,14.50
2018-10-06T01:13:12.878Z,14.44
2018-10-06T01:15:43.263Z,14.50
2018-10-06T01:18:13.620Z,14.48
2018-10-06T01:20:43.943Z,14.52
2018-10-06T01:23:14.354Z,14.43
2018-10-06T01:25:44.742Z,14.39
2018-10-06T01:28:15.071Z,14.38
2018-10-06T01:30:45.382Z,14.39
2018-10-06T01:33:15.671Z,14.42
2018-10-06T01:35:46.042Z,14.32
2018-10-06T01:38:16.324Z,14.27
2018-10-06T01:40:46.685Z,14.26
2018-10-06T01:43:17.044Z,14.19
2018-10-06T01:45:47.746Z,14.29
2018-10-06T01:48:18.019Z,14.22
2018-10-06T01:50:48.401Z,14.27
2018-10-06T01:53:18.728Z,14.37
2018-10-06T01:55:49.063Z,14.35
2018-10-06T01:58:19.308Z,14.36
2018-10-06T02:00:49.663Z,14.39
2018-10-06T02:03:19.970Z,14.37
2018-10-06T02:05:50.311Z,14.34
2018-10-06T02:08:20.543Z,14.37
2018-10-06T02:10:50.930Z,14.44
2018-10-06T02:13:21.213Z,14.46
2018-10-06T02:15:51.576Z,14.43
2018-10-06T02:18:21.929Z,14.49
2018-10-06T02:20:52.210Z,14.49
2018-10-06T02:23:22.571Z,14.48
2018-10-06T02:25:52.899Z,14.47
2018-10-06T02:28:23.221Z,14.46
2018-10-06T02:30:53.562Z,14.48
2018-10-06T02:33:23.919Z,14.46
2018-10-06T02:35:54.237Z,14.48
2018-10-06T02:38:24.554Z,14.42
2018-10-06T02:40:54.878Z,14.38
2018-10-06T02:43:25.220Z,14.40
2018-10-06T02:45:55.608Z,14.35
2018-10-06T02:48:25.906Z,14.32
2018-10-06T02:50:56.214Z,14.28
2018-10-06T02:53:26.582Z,14.31
2018-10-06T02:55:56.956Z,14.25
2018-10-06T02:58:27.296Z,14.21
2018-10-06T03:00:57.580Z,14.25
2018-10-06T03:03:27.951Z,14.16
2018-10-06T03:05:58.272Z,14.08
2018-10-06T03:08:28.545Z,14.03
2018-10-06T03:11:05.036Z,13.95
2018-10-06T03:13:49.832Z,13.91
2018-10-06T03:16:20.201Z,13.83
2018-10-06T03:18:50.560Z,13.78
2018-10-06T03:21:20.888Z,13.69
2018-10-06T03:23:51.261Z,13.64
2018-10-06T03:26:21.677Z,13.63
2018-10-06T03:28:51.961Z,13.64
2018-10-06T03:31:22.284Z,13.54
2018-10-06T03:33:52.861Z,13.47
2018-10-06T03:36:23.229Z,13.48
2018-10-06T03:38:53.615Z,13.49
2018-10-06T03:41:23.964Z,13.39
2018-10-06T03:43:54.360Z,13.34
2018-10-06T03:46:24.656Z,13.32
2018-10-06T03:48:54.988Z,13.30
2018-10-06T03:51:25.392Z,13.33
2018-10-06T03:53:55.766Z,13.30
2018-10-06T03:56:26.173Z,13.29
2018-10-06T03:58:56.523Z,13.23
2018-10-06T04:01:26.817Z,13.21
2018-10-06T04:03:57.128Z,13.13
2018-10-06T04:06:27.452Z,13.15
2018-10-06T04:08:58.138Z,13.12
2018-10-06T04:11:28.900Z,13.09
2018-10-06T04:13:59.664Z,13.06
2018-10-06T04:16:29.949Z,13.05
2018-10-06T04:19:00.662Z,12.96
2018-10-06T04:21:36.159Z,12.92
2018-10-06T04:24:06.735Z,12.91
2018-10-06T04:26:37.040Z,12.79
2018-10-06T04:29:07.412Z,12.78
2018-10-06T04:31:37.777Z,12.66
2018-10-06T04:34:08.107Z,12.61
2018-10-06T04:36:38.518Z,12.59
2018-10-06T04:39:11.751Z,12.58
2018-10-06T04:41:42.129Z,12.52
2018-10-06T04:44:12.467Z,12.47
2018-10-06T04:46:42.783Z,12.44
2018-10-06T04:49:13.049Z,12.36
2018-10-06T04:51:43.354Z,12.41
2018-10-06T04:54:13.668Z,12.37
2018-10-06T04:56:44.011Z,12.36
2018-10-06T04:59:14.254Z,12.33
2018-10-06T05:01:44.620Z,12.33
2018-10-06T05:04:14.915Z,12.39
2018-10-06T05:06:45.234Z,12.34
2018-10-06T05:09:15.519Z,12.35
2018-10-06T05:11:45.840Z,12.44
2018-10-06T05:14:16.195Z,12.41
2018-10-06T05:16:46.534Z,12.46
2018-10-06T05:19:16.887Z,12.56
2018-10-06T05:21:47.143Z,12.56
2018-10-06T05:24:17.421Z,12.55
2018-10-06T05:26:47.790Z,12.49
2018-10-06T05:29:18.214Z,12.49
2018-10-06T05:31:48.509Z,12.45
2018-10-06T05:34:18.832Z,12.51
2018-10-06T05:36:49.136Z,12.48
2018-10-06T05:39:19.443Z,12.57
2018-10-06T05:41:49.773Z,12.56
2018-10-06T05:44:20.103Z,12.66
2018-10-06T05:46:50.508Z,12.68
2018-10-06T05:49:20.756Z,12.64
2018-10-06T05:51:51.150Z,12.63
2018-10-06T05:54:21.438Z,12.65
2018-10-06T05:56:51.757Z,12.68
2018-10-06T05:59:22.293Z,12.67
2018-10-06T06:01:52.647Z,12.65
2018-10-06T06:04:22.998Z,12.72
2018-10-06T06:06:53.291Z,12.75
2018-10-06T06:09:23.630Z,12.79
2018-10-06T06:11:53.952Z,12.86
2018-10-06T06:14:24.243Z,12.95
2018-10-06T06:16:54.543Z,13.12
2018-10-06T06:19:24.804Z,13.26
2018-10-06T06:21:55.121Z,13.42
2018-10-06T06:24:25.415Z,13.57
2018-10-06T06:26:55.758Z,13.73
2018-10-06T06:29:26.093Z,13.85
2018-10-06T06:31:56.483Z,14.07
2018-10-06T06:34:26.790Z,14.26
2018-10-06T06:39:58.062Z,15.03
2018-10-06T06:42:28.384Z,16.22
2018-10-06T06:44:58.705Z,16.80
2018-10-06T06:47:29.067Z,16.87
2018-10-06T06:49:59.366Z,17.36
2018-10-06T06:52:29.726Z,17.19
2018-10-06T06:55:00.088Z,17.07
2018-10-06T06:57:30.384Z,17.70
2018-10-06T07:00:00.793Z,17.74
2018-10-06T07:02:31.153Z,17.57
2018-10-06T07:05:01.441Z,17.58
2018-10-06T07:07:31.729Z,17.72
2018-10-06T07:10:02.095Z,17.92
2018-10-06T07:12:32.479Z,18.13
2018-10-06T07:15:02.711Z,18.33
2018-10-06T07:17:33.001Z,18.52
2018-10-06T07:20:03.367Z,18.86
2018-10-06T07:22:33.705Z,19.16
2018-10-06T07:25:04.048Z,19.52
2018-10-06T07:27:34.386Z,19.77
2018-10-06T07:30:04.914Z,20.21
2018-10-06T07:32:35.278Z,20.41
2018-10-06T07:35:05.838Z,20.46
2018-10-06T07:37:36.210Z,20.64
2018-10-06T07:40:07.241Z,21.03
2018-10-06T07:42:37.564Z,21.09
2018-10-06T07:45:08.191Z,21.17
2018-10-06T07:47:38.492Z,21.25
2018-10-06T07:50:08.833Z,21.49
2018-10-06T07:52:39.195Z,21.63
2018-10-06T07:55:09.493Z,21.84
2018-10-06T07:57:39.786Z,22.08
2018-10-06T08:00:10.139Z,22.57
2018-10-06T08:02:40.483Z,22.88
2018-10-06T08:05:10.844Z,23.08
2018-10-06T08:07:41.196Z,23.24
2018-10-06T08:10:11.513Z,23.71
2018-10-06T08:12:41.860Z,23.34
2018-10-06T08:15:12.181Z,22.96
2018-10-06T08:17:42.562Z,23.22
2018-10-06T08:20:12.894Z,23.39
2018-10-06T08:22:43.197Z,23.69
2018-10-06T08:25:13.562Z,24.03
2018-10-06T08:27:43.895Z,24.15
2018-10-06T08:30:14.183Z,23.73
2018-10-06T08:32:44.558Z,23.56
2018-10-06T08:35:14.894Z,23.36
2018-10-06T08:37:45.204Z,23.35
2018-10-06T08:40:15.517Z,23.27
2018-10-06T08:42:45.820Z,23.26
2018-10-06T08:45:16.157Z,23.16
2018-10-06T08:47:46.448Z,23.09
2018-10-06T08:50:16.888Z,23.62
2018-10-06T08:52:47.233Z,24.14
2018-10-06T08:55:17.568Z,24.34
2018-10-06T08:57:47.888Z,24.56
2018-10-06T09:00:18.215Z,24.78
2018-10-06T09:02:48.569Z,25.05
2018-10-06T09:05:18.893Z,25.44
2018-10-06T09:07:49.390Z,25.69
2018-10-06T09:10:19.672Z,25.64
2018-10-06T09:12:50.002Z,25.97
2018-10-06T09:15:20.357Z,25.22
2018-10-06T09:17:50.741Z,24.85
2018-10-06T09:20:21.071Z,24.80
2018-10-06T09:22:51.391Z,24.66
2018-10-06T09:25:21.703Z,24.77
2018-10-06T09:27:51.988Z,24.50
2018-10-06T09:30:22.341Z,24.58
2018-10-06T09:32:52.668Z,24.93
2018-10-06T09:35:22.934Z,25.48
2018-10-06T09:37:53.264Z,25.33
2018-10-06T09:40:23.587Z,25.98
2018-10-06T09:42:53.983Z,26.65
2018-10-06T09:45:24.304Z,26.98
2018-10-06T09:47:54.652Z,26.48
2018-10-06T09:50:25.042Z,26.49
2018-10-06T09:52:55.400Z,26.57
2018-10-06T09:55:25.710Z,26.50
2018-10-06T09:57:55.992Z,26.92
2018-10-06T10:00:31.419Z,27.52
2018-10-06T10:03:06.730Z,27.50
2018-10-06T10:05:42.168Z,27.33
2018-10-06T10:08:12.462Z,27.51
2018-10-06T10:10:42.788Z,27.47
2018-10-06T10:13:13.235Z,27.48
2018-10-06T10:15:43.524Z,27.66
2018-10-06T10:18:14.033Z,27.34
2018-10-06T10:20:44.208Z,26.98
2018-10-06T10:23:17.503Z,26.30
2018-10-06T10:25:47.798Z,26.81
2018-10-06T10:28:18.098Z,27.07
2018-10-06T10:30:48.463Z,26.98
2018-10-06T10:33:18.788Z,26.88
2018-10-06T10:35:49.099Z,26.88
2018-10-06T10:38:19.429Z,27.33
2018-10-06T10:40:49.779Z,27.11
2018-10-06T10:43:20.072Z,27.10
2018-10-06T10:45:50.460Z,26.83
2018-10-06T10:48:20.800Z,26.82
2018-10-06T10:50:51.196Z,27.07
2018-10-06T10:53:21.444Z,27.45
2018-10-06T10:55:51.774Z,27.28
2018-10-06T10:58:22.117Z,27.45
2018-10-06T11:00:52.444Z,27.69
2018-10-06T11:03:22.801Z,27.51
2018-10-06T11:05:53.189Z,27.47
2018-10-06T11:08:23.526Z,27.19
2018-10-06T11:10:53.887Z,27.18
2018-10-06T11:13:24.160Z,27.37
2018-10-06T11:15:54.525Z,27.47
2018-10-06T11:18:24.836Z,27.73
2018-10-06T11:20:55.142Z,27.67
2018-10-06T11:23:25.498Z,27.38
2018-10-06T11:25:55.816Z,27.54
2018-10-06T11:28:26.125Z,27.33
2018-10-06T11:30:56.444Z,27.35
2018-10-06T11:33:26.773Z,26.99
2018-10-06T11:35:57.135Z,27.12
2018-10-06T11:38:27.456Z,27.40
2018-10-06T11:40:57.768Z,27.36
2018-10-06T11:43:28.058Z,27.11
2018-10-06T11:45:58.411Z,27.27
2018-10-06T11:48:28.695Z,27.16
2018-10-06T11:50:59.053Z,27.31
2018-10-06T11:53:29.370Z,27.54
2018-10-06T11:55:59.752Z,27.59
2018-10-06T11:58:30.042Z,28.07
2018-10-06T12:01:00.431Z,28.20
2018-10-06T12:03:30.735Z,28.20
2018-10-06T12:06:01.055Z,28.00
2018-10-06T12:08:31.365Z,27.89
2018-10-06T12:11:01.735Z,28.27
2018-10-06T12:13:32.046Z,28.30
2018-10-06T12:16:02.624Z,28.38
2018-10-06T12:18:32.908Z,28.16
2018-10-06T12:21:03.215Z,28.44
2018-10-06T12:23:33.513Z,28.56
2018-10-06T12:26:03.899Z,28.04
2018-10-06T12:28:34.142Z,27.69
2018-10-06T12:31:04.484Z,27.79
2018-10-06T12:33:34.823Z,27.89
2018-10-06T12:36:05.190Z,28.12
2018-10-06T12:38:35.497Z,28.24
2018-10-06T12:41:05.995Z,27.99
2018-10-06T12:43:36.347Z,28.19
2018-10-06T12:46:06.656Z,28.19
2018-10-06T12:48:37.015Z,28.58
2018-10-06T12:51:07.745Z,28.87
2018-10-06T12:53:38.048Z,28.28
2018-10-06T12:56:08.789Z,28.33
2018-10-06T12:58:39.116Z,28.48
2018-10-06T13:01:09.463Z,28.37
2018-10-06T13:03:39.768Z,28.57
2018-10-06T13:06:10.107Z,28.72
2018-10-06T13:08:40.423Z,28.62
2018-10-06T13:11:10.808Z,28.90
2018-10-06T13:13:41.089Z,28.50
2018-10-06T13:16:11.436Z,28.21
2018-10-06T13:18:41.769Z,27.94
2018-10-06T13:21:12.123Z,27.72
2018-10-06T13:23:42.394Z,27.75
2018-10-06T13:26:13.000Z,28.03
2018-10-06T13:28:43.314Z,27.97
2018-10-06T13:31:13.658Z,28.45
2018-10-06T13:33:43.998Z,28.57
2018-10-06T13:36:14.412Z,28.93
2018-10-06T13:38:44.850Z,29.14
2018-10-06T13:41:15.226Z,29.11
2018-10-06T13:43:45.616Z,28.24
2018-10-06T13:46:16.092Z,28.19
2018-10-06T13:48:46.507Z,27.95
2018-10-06T13:51:16.856Z,27.97
2018-10-06T13:53:47.252Z,27.92
2018-10-06T13:56:17.589Z,27.64
2018-10-06T13:58:48.022Z,27.58
2018-10-06T14:01:18.527Z,27.56
2018-10-06T14:03:49.843Z,27.73
2018-10-06T14:06:20.271Z,27.61
2018-10-06T14:08:50.688Z,27.50
2018-10-06T14:11:21.124Z,27.94
2018-10-06T14:13:51.444Z,27.93
2018-10-06T14:16:21.857Z,27.85
2018-10-06T14:18:52.425Z,27.75
2018-10-06T14:21:22.861Z,27.85
2018-10-06T14:23:53.227Z,27.77
2018-10-06T14:26:23.840Z,28.01
2018-10-06T14:28:54.309Z,28.03
2018-10-06T14:31:24.615Z,27.79
2018-10-06T14:33:55.212Z,27.67
2018-10-06T14:36:25.569Z,27.76
2018-10-06T14:38:55.924Z,27.76
2018-10-06T14:41:26.535Z,27.94
2018-10-06T14:43:56.953Z,28.15
2018-10-06T14:46:27.409Z,28.41
2018-10-06T14:48:57.730Z,28.62
2018-10-06T14:51:28.149Z,28.83
2018-10-06T14:53:58.524Z,29.00
2018-10-06T14:56:28.867Z,28.88
2018-10-06T14:58:59.729Z,28.73
2018-10-06T15:01:30.116Z,28.48
2018-10-06T15:04:00.505Z,28.17
2018-10-06T15:06:31.271Z,27.92
2018-10-06T15:09:01.709Z,27.84
2018-10-06T15:11:32.163Z,27.92
2018-10-06T15:14:02.642Z,27.94
2018-10-06T15:16:33.004Z,27.78
2018-10-06T15:19:03.366Z,27.52
2018-10-06T15:21:33.780Z,27.37
2018-10-06T15:24:04.254Z,27.13
2018-10-06T15:26:34.744Z,26.95
2018-10-06T15:29:05.207Z,26.78
2018-10-06T15:31:35.700Z,26.63
2018-10-06T15:34:06.211Z,26.49
2018-10-06T15:36:36.540Z,26.40
2018-10-06T15:39:09.120Z,26.30
2018-10-06T15:41:39.714Z,26.22
2018-10-06T15:44:10.107Z,26.11
2018-10-06T15:46:40.602Z,26.01
2018-10-06T15:49:10.945Z,25.93
2018-10-06T15:51:41.296Z,25.97
2018-10-06T15:54:11.727Z,25.96
2018-10-06T15:56:42.209Z,26.07
2018-10-06T15:59:12.579Z,26.18
2018-10-06T16:01:43.038Z,26.31
2018-10-06T16:04:13.347Z,26.42
2018-10-06T16:06:43.715Z,26.45
2018-10-06T16:09:14.063Z,26.42
2018-10-06T16:11:44.487Z,26.30
2018-10-06T16:14:14.806Z,26.25
2018-10-06T16:16:45.280Z,26.02
2018-10-06T16:19:15.875Z,25.94
2018-10-06T16:21:46.240Z,25.89
2018-10-06T16:24:16.583Z,25.83
2018-10-06T16:26:46.911Z,25.77
2018-10-06T16:29:17.256Z,25.65
2018-10-06T16:31:47.578Z,25.52
2018-10-06T16:34:17.918Z,25.35
2018-10-06T16:36:48.267Z,25.22
2018-10-06T16:39:18.594Z,25.12
2018-10-06T16:41:48.869Z,24.99
2018-10-06T16:44:19.311Z,24.83
2018-10-06T16:46:49.622Z,24.63
2018-10-06T16:49:19.947Z,24.44
2018-10-06T16:51:50.220Z,24.21
2018-10-06T16:54:20.562Z,24.04
2018-10-06T16:56:50.844Z,23.87
2018-10-06T16:59:21.162Z,23.68
2018-10-06T17:01:51.511Z,23.48
2018-10-06T17:04:21.754Z,23.29
2018-10-06T17:06:52.103Z,23.13
2018-10-06T17:09:22.475Z,22.98
2018-10-06T17:11:52.740Z,22.86
2018-10-06T17:14:23.172Z,22.73
2018-10-06T17:16:53.584Z,22.55
2018-10-06T17:19:23.866Z,22.42
2018-10-06T17:21:54.248Z,22.24
2018-10-06T17:24:24.647Z,22.09
2018-10-06T17:26:54.945Z,21.97
2018-10-06T17:29:25.393Z,21.89
2018-10-06T17:31:55.744Z,21.80
2018-10-06T17:34:26.104Z,21.70
2018-10-06T17:36:56.443Z,21.64
2018-10-06T17:39:26.860Z,21.55
2018-10-06T17:41:57.164Z,21.48
2018-10-06T17:44:27.656Z,21.39
2018-10-06T17:46:57.889Z,21.37
2018-10-06T17:49:28.204Z,21.33
2018-10-06T17:51:58.552Z,21.24
2018-10-06T17:54:28.915Z,21.38
2018-10-06T17:56:59.217Z,21.31
2018-10-06T17:59:29.534Z,21.21
2018-10-06T18:01:59.869Z,21.11
2018-10-06T18:04:30.214Z,21.04
2018-10-06T18:07:00.504Z,20.96
2018-10-06T18:09:30.918Z,21.05
2018-10-06T18:12:01.275Z,20.99
2018-10-06T18:14:31.623Z,20.93
2018-10-06T18:17:01.896Z,20.79
2018-10-06T18:19:32.293Z,20.76
2018-10-06T18:22:02.586Z,20.78
2018-10-06T18:24:32.997Z,20.77
2018-10-06T18:27:03.351Z,20.85
2018-10-06T18:29:33.719Z,20.86
2018-10-06T18:32:04.092Z,20.81
2018-10-06T18:34:34.403Z,20.80
2018-10-06T18:37:04.782Z,20.84
2018-10-06T18:39:35.058Z,20.82
2018-10-06T18:42:05.427Z,20.79
2018-10-06T18:44:35.790Z,20.69
2018-10-06T18:47:06.136Z,20.76
2018-10-06T18:49:36.408Z,20.66
2018-10-06T18:52:06.843Z,20.84
2018-10-06T18:54:37.124Z,20.69
2018-10-06T18:57:07.590Z,20.73
2018-10-06T18:59:37.904Z,20.74
2018-10-06T19:02:08.539Z,20.68
2018-10-06T19:04:38.836Z,20.69
2018-10-06T19:07:09.167Z,20.65
2018-10-06T19:09:39.540Z,20.64
2018-10-06T19:12:10.081Z,20.64
2018-10-06T19:14:40.338Z,20.50
2018-10-06T19:17:10.671Z,20.69
2018-10-06T19:19:41.046Z,20.68
2018-10-06T19:22:11.414Z,20.57
2018-10-06T19:24:41.780Z,20.54
2018-10-06T19:27:12.164Z,20.42
2018-10-06T19:29:42.600Z,20.34
2018-10-06T19:32:12.926Z,20.22
2018-10-06T19:34:43.323Z,20.15
2018-10-06T19:37:13.651Z,20.11
2018-10-06T19:39:44.015Z,20.21
2018-10-06T19:42:14.326Z,20.18
2018-10-06T19:44:44.697Z,20.11
2018-10-06T19:47:15.021Z,20.03
2018-10-06T19:49:45.387Z,19.91
2018-10-06T19:52:15.687Z,19.86
2018-10-06T19:54:45.988Z,19.80
2018-10-06T19:57:16.326Z,19.75
2018-10-06T19:59:46.630Z,19.68
2018-10-06T20:02:16.927Z,19.67
2018-10-06T20:04:47.271Z,19.69
2018-10-06T20:07:17.590Z,19.64
2018-10-06T20:09:47.937Z,19.55
2018-10-06T20:12:18.344Z,19.48
2018-10-06T20:14:48.728Z,19.42
2018-10-06T20:17:19.070Z,19.40
2018-10-06T20:19:49.404Z,19.37
2018-10-06T20:22:19.800Z,19.31
2018-10-06T20:24:50.130Z,19.24
2018-10-06T20:27:20.469Z,19.20
2018-10-06T20:29:50.834Z,19.16
2018-10-06T20:32:21.133Z,19.10
2018-10-06T20:34:51.504Z,19.02
2018-10-06T20:37:21.890Z,18.93
2018-10-06T20:39:52.184Z,18.86
2018-10-06T20:42:22.513Z,18.82
2018-10-06T20:44:52.879Z,18.77
2018-10-06T20:47:23.192Z,18.76
2018-10-06T20:49:53.541Z,18.69
2018-10-06T20:52:23.920Z,18.65
2018-10-06T20:54:54.206Z,18.61
2018-10-06T20:57:24.476Z,18.56
2018-10-06T20:59:54.822Z,18.51
2018-10-06T21:02:25.217Z,18.47
2018-10-06T21:04:55.580Z,18.40
2018-10-06T21:07:25.926Z,18.36
2018-10-06T21:09:56.279Z,18.35
2018-10-06T21:12:26.614Z,18.29
2018-10-06T21:14:56.939Z,18.22
2018-10-06T21:17:27.223Z,18.16
2018-10-06T21:19:57.543Z,18.11
2018-10-06T21:22:27.841Z,18.06
2018-10-06T21:24:58.215Z,18.00
2018-10-06T21:27:28.541Z,17.95
2018-10-06T21:29:58.904Z,17.95
2018-10-06T21:32:29.199Z,17.90
2018-10-06T21:34:59.544Z,17.86
2018-10-06T21:37:29.889Z,17.80
2018-10-06T21:40:00.223Z,17.76
2018-10-06T21:42:30.562Z,17.73
2018-10-06T21:45:00.887Z,17.71
2018-10-06T21:47:31.176Z,17.71
2018-10-06T21:50:01.498Z,17.63
2018-10-06T21:52:31.982Z,17.55
2018-10-06T21:55:02.563Z,17.53
2018-10-06T21:57:32.926Z,17.49
2018-10-06T22:00:03.524Z,17.54
2018-10-06T22:02:34.162Z,17.45
2018-10-06T22:05:04.790Z,17.43
2018-10-06T22:07:35.185Z,17.42
2018-10-06T22:10:05.643Z,17.35
2018-10-06T22:12:35.966Z,17.35
2018-10-06T22:15:06.588Z,17.31
2018-10-06T22:17:36.843Z,17.24
2018-10-06T22:20:07.320Z,17.21
2018-10-06T22:22:37.652Z,17.19
2018-10-06T22:25:08.000Z,17.14
2018-10-06T22:27:38.416Z,17.11
2018-10-06T22:30:09.408Z,17.09
2018-10-06T22:32:39.771Z,17.09
2018-10-06T22:35:10.090Z,17.06
2018-10-06T22:37:40.469Z,16.99
2018-10-06T22:40:10.809Z,16.94
2018-10-06T22:42:41.144Z,16.92
2018-10-06T22:45:11.527Z,16.85
2018-10-06T22:47:41.869Z,16.82
2018-10-06T22:50:12.235Z,16.75
2018-10-06T22:52:42.540Z,16.69
2018-10-06T22:55:12.915Z,16.65
2018-10-06T22:57:43.222Z,16.60
2018-10-06T23:00:13.797Z,16.51
2018-10-06T23:02:44.178Z,16.41
2018-10-06T23:05:14.511Z,16.39
2018-10-06T23:07:44.859Z,16.37
2018-10-06T23:10:15.211Z,16.33
2018-10-06T23:12:45.561Z,16.29
2018-10-06T23:15:15.863Z,16.29
2018-10-06T23:17:46.207Z,16.28
2018-10-06T23:20:16.576Z,16.24
2018-10-06T23:22:46.958Z,16.25
2018-10-06T23:25:17.363Z,16.23
2018-10-06T23:27:47.708Z,16.19
2018-10-06T23:30:18.037Z,16.21
2018-10-06T23:32:48.423Z,16.20
2018-10-06T23:35:18.763Z,16.25
2018-10-06T23:37:49.158Z,16.24
2018-10-06T23:40:19.491Z,16.32
2018-10-06T23:42:49.842Z,16.29
2018-10-06T23:45:20.174Z,16.17
2018-10-06T23:47:50.543Z,16.14
2018-10-06T23:50:20.879Z,16.14
2018-10-06T23:52:51.247Z,16.15
2018-10-06T23:55:21.685Z,16.10
2018-10-06T23:57:52.013Z,16.08
